createdAt,value
2022-08-11T00:00:11.211Z,99036.56
2022-08-11T00:05:23.620Z,99039.22
2022-08-11T00:10:33.439Z,99043.56
2022-08-11T00:15:44.342Z,99035.34
2022-08-11T00:20:50.250Z,99041.47
2022-08-11T00:25:58.415Z,99036.53
2022-08-11T00:31:07.984Z,99036.91
2022-08-11T00:36:16.266Z,99032.63
2022-08-11T00:41:37.455Z,99035.06
2022-08-11T00:46:56.109Z,99044.84
2022-08-11T00:52:15.249Z,99041.59
2022-08-11T00:57:56.545Z,99039.16
2022-08-11T01:03:20.881Z,99046.66
2022-08-11T01:08:59.200Z,99038.03
2022-08-11T01:14:37.959Z,99043.41
2022-08-11T01:20:46.415Z,99045.88
2022-08-11T01:26:30.567Z,99048.03
2022-08-11T01:32:16.467Z,99043.53
2022-08-11T01:38:01.801Z,99043.75
2022-08-11T01:43:53.089Z,99040.28
2022-08-11T01:50:05.974Z,99051.06
2022-08-11T01:54:49.177Z,99045.16
2022-08-11T02:00:03.909Z,99043.00
2022-08-11T02:05:43.712Z,99045.44
2022-08-11T02:11:24.201Z,99050.78
2022-08-11T02:16:42.989Z,99041.84
2022-08-11T02:22:06.101Z,99043.00
2022-08-11T02:27:23.390Z,99040.16
2022-08-11T02:32:48.608Z,99032.94
2022-08-11T02:38:03.835Z,99041.16
2022-08-11T02:43:22.827Z,99047.88
2022-08-11T02:49:02.223Z,99042.78
2022-08-11T02:54:14.787Z,99043.69
2022-08-11T02:59:46.716Z,99039.31
2022-08-11T03:05:07.465Z,99040.88
2022-08-11T03:10:18.293Z,99044.28
2022-08-11T03:15:44.861Z,99044.81
2022-08-11T03:20:57.033Z,99041.81
2022-08-11T03:26:08.873Z,99056.75
2022-08-11T03:31:27.173Z,99046.97
2022-08-11T03:37:17.083Z,99055.66
2022-08-11T03:42:30.936Z,99053.47
2022-08-11T03:48:12.274Z,99052.13
2022-08-11T03:53:22.984Z,99054.34
2022-08-11T03:59:10.953Z,99055.38
2022-08-11T04:04:51.315Z,99057.75
2022-08-11T04:10:44.471Z,99054.53
2022-08-11T04:16:32.829Z,99062.53
2022-08-11T04:22:00.798Z,99057.81
2022-08-11T04:27:37.310Z,99072.75
2022-08-11T04:33:12.720Z,99059.38
2022-08-11T04:38:37.947Z,99070.56
2022-08-11T04:44:24.516Z,99054.28
2022-08-11T04:50:16.294Z,99058.88
2022-08-11T04:56:00.304Z,99060.72
2022-08-11T05:01:39.038Z,99054.28
2022-08-11T05:07:22.470Z,99064.13
2022-08-11T05:12:43.829Z,99066.97
2022-08-11T05:18:13.806Z,99068.34
2022-08-11T05:23:34.898Z,99074.56
2022-08-11T05:28:59.310Z,99078.28
2022-08-11T05:34:25.988Z,99078.94
2022-08-11T05:39:46.601Z,99072.44
2022-08-11T05:45:15.702Z,99077.47
2022-08-11T05:50:34.819Z,99086.25
2022-08-11T05:56:02.980Z,99083.13
2022-08-11T06:01:13.957Z,99077.47
2022-08-11T06:06:19.151Z,99084.56
2022-08-11T06:11:43.022Z,99090.81
2022-08-11T06:16:56.652Z,99095.28
2022-08-11T06:22:02.594Z,99085.47
2022-08-11T06:27:12.659Z,99092.00
2022-08-11T06:32:22.897Z,99088.47
2022-08-11T06:37:39.096Z,99092.91
2022-08-11T06:42:53.341Z,99098.19
2022-08-11T06:48:03.592Z,99099.75
2022-08-11T06:53:10.761Z,99089.63
2022-08-11T06:58:32.018Z,99094.47
2022-08-11T07:03:45.971Z,99093.13
2022-08-11T07:09:47.003Z,99091.94
2022-08-11T07:15:08.615Z,99102.91
2022-08-11T07:20:29.897Z,99097.31
2022-08-11T07:25:51.709Z,99096.47
2022-08-11T07:31:01.814Z,99094.00
2022-08-11T07:36:14.478Z,99092.50
2022-08-11T07:41:21.605Z,99083.41
2022-08-11T07:46:42.740Z,99078.81
2022-08-11T07:52:04.369Z,99084.75
2022-08-11T07:57:46.084Z,99086.03
2022-08-11T08:03:03.154Z,99081.63
2022-08-11T08:08:24.285Z,99085.13
2022-08-11T08:13:41.716Z,99079.50
2022-08-11T08:18:47.628Z,99079.72
2022-08-11T08:23:57.340Z,99087.88
2022-08-11T08:29:18.415Z,99082.47
2022-08-11T08:34:24.551Z,99077.50
2022-08-11T08:39:34.689Z,99069.28
2022-08-11T08:44:45.098Z,99064.28
2022-08-11T08:49:53.393Z,99063.72
2022-08-11T08:55:07.317Z,99067.00
2022-08-11T09:00:16.857Z,99064.06
2022-08-11T09:05:26.337Z,99053.72
2022-08-11T09:10:38.164Z,99050.94
2022-08-11T09:15:44.644Z,99056.91
2022-08-11T09:20:50.827Z,99045.41
2022-08-11T09:26:13.338Z,99046.47
2022-08-11T09:31:21.974Z,99044.25
2022-08-11T09:36:39.765Z,99039.84
2022-08-11T09:41:55.721Z,99029.59
2022-08-11T09:47:15.772Z,99028.53
2022-08-11T09:52:22.183Z,99026.09
2022-08-11T09:57:42.343Z,99026.47
2022-08-11T10:02:50.237Z,99022.56
2022-08-11T10:08:00.624Z,99024.16
2022-08-11T10:14:31.532Z,99021.50
2022-08-11T10:18:55.641Z,99009.34
2022-08-11T10:24:16.341Z,99004.06
2022-08-11T10:29:38.481Z,98997.66
2022-08-11T10:34:57.822Z,98993.38
2022-08-11T10:40:04.817Z,98998.03
2022-08-11T10:45:26.385Z,98990.75
2022-08-11T10:50:44.492Z,98971.03
2022-08-11T11:01:36.649Z,98974.66
2022-08-11T11:06:53.540Z,98963.41
2022-08-11T11:12:16.161Z,98961.38
2022-08-11T11:17:43.216Z,98969.03
2022-08-11T11:22:52.448Z,98966.19
2022-08-11T11:28:22.076Z,98955.38
2022-08-11T11:34:06.809Z,98955.03
2022-08-11T11:39:14.497Z,98945.25
2022-08-11T11:44:23.297Z,98938.72
2022-08-11T11:49:48.805Z,98940.38
2022-08-11T11:54:58.590Z,98945.22
2022-08-11T12:00:16.479Z,98943.38
2022-08-11T12:05:25.263Z,98935.44
2022-08-11T12:10:31.448Z,98926.50
2022-08-11T12:16:31.040Z,98921.88
2022-08-11T12:21:08.064Z,98912.16
2022-08-11T12:26:41.439Z,98914.63
2022-08-11T12:31:47.425Z,98906.19
2022-08-11T12:37:00.479Z,98893.22
2022-08-11T12:42:33.793Z,98880.47
2022-08-11T12:48:57.542Z,98894.94
2022-08-11T12:53:31.429Z,98879.34
2022-08-11T12:58:37.762Z,98856.03
2022-08-11T13:09:15.707Z,98858.81
2022-08-11T13:14:22.078Z,98868.22
2022-08-11T13:19:28.455Z,98863.44
2022-08-11T13:24:37.173Z,98850.28
2022-08-11T13:29:47.027Z,98853.66
2022-08-11T13:34:53.607Z,98849.78
2022-08-11T13:40:02.479Z,98846.13
2022-08-11T13:45:10.325Z,98838.50
2022-08-11T13:50:18.822Z,98834.31
2022-08-11T13:55:50.887Z,98818.94
2022-08-11T14:00:57.902Z,98823.75
2022-08-11T14:06:06.568Z,98820.25
2022-08-11T14:12:22.792Z,98808.53
2022-08-11T14:16:56.946Z,98803.13
2022-08-11T14:22:11.604Z,98807.38
2022-08-11T14:28:15.433Z,98800.50
2022-08-11T14:32:57.059Z,98793.53
2022-08-11T14:38:05.699Z,98790.72
2022-08-11T14:44:02.743Z,98787.84
2022-08-11T14:48:53.268Z,98782.66
2022-08-11T14:54:19.041Z,98785.81
2022-08-11T14:59:27.998Z,98776.97
2022-08-11T15:04:35.263Z,98783.38
2022-08-11T15:10:09.917Z,98771.41
2022-08-11T15:15:26.890Z,98767.91
2022-08-11T15:20:46.096Z,98754.50
2022-08-11T15:25:55.950Z,98754.72
2022-08-11T15:31:19.235Z,98745.69
2022-08-11T15:36:37.699Z,98744.44
2022-08-11T15:41:59.279Z,98743.06
2022-08-11T15:47:09.243Z,98743.72
2022-08-11T15:52:16.606Z,98744.84
2022-08-11T15:57:39.511Z,98748.38
2022-08-11T16:03:03.248Z,98741.38
2022-08-11T16:08:13.293Z,98731.66
2022-08-11T16:13:33.996Z,98731.56
2022-08-11T16:18:51.657Z,98732.16
2022-08-11T16:24:02.119Z,98729.41
2022-08-11T16:29:08.889Z,98727.72
2022-08-11T16:34:29.065Z,98718.91
2022-08-11T16:39:34.206Z,98723.34
2022-08-11T16:44:52.503Z,98711.84
2022-08-11T16:50:01.701Z,98715.50
2022-08-11T16:55:08.045Z,98705.81
2022-08-11T17:00:15.954Z,98708.94
2022-08-11T17:05:54.389Z,98709.44
2022-08-11T17:11:15.971Z,98708.88
2022-08-11T17:16:24.582Z,98708.06
2022-08-11T17:21:34.909Z,98707.78
2022-08-11T17:27:00.780Z,98710.09
2022-08-11T17:32:21.517Z,98710.50
2022-08-11T17:37:31.065Z,98700.38
2022-08-11T17:42:50.048Z,98701.09
2022-08-11T17:48:08.441Z,98707.44
2022-08-11T17:53:32.073Z,98702.50
2022-08-11T17:58:51.216Z,98707.50
2022-08-11T18:03:59.238Z,98719.16
2022-08-11T18:09:23.307Z,98717.47
2022-08-11T18:14:41.483Z,98708.84
2022-08-11T18:19:59.672Z,98723.19
2022-08-11T18:25:24.441Z,98722.78
2022-08-11T18:30:42.998Z,98725.06
2022-08-11T18:36:06.408Z,98724.13
2022-08-11T18:41:27.088Z,98719.13
2022-08-11T18:46:48.579Z,98724.59
2022-08-11T18:52:09.175Z,98724.81
2022-08-11T18:57:30.298Z,98718.13
2022-08-11T19:02:54.358Z,98734.25
2022-08-11T19:08:17.901Z,98733.44
2022-08-11T19:13:42.643Z,98734.19
2022-08-11T19:19:03.525Z,98746.78
2022-08-11T19:24:22.834Z,98757.09
2022-08-11T19:30:11.126Z,98753.88
2022-08-11T19:35:23.349Z,98763.13
2022-08-11T19:40:42.327Z,98760.56
2022-08-11T19:46:03.394Z,98757.25
2022-08-11T19:51:35.693Z,98756.28
2022-08-11T19:56:53.731Z,98758.69
2022-08-11T20:02:15.747Z,98762.97
2022-08-11T20:07:34.388Z,98759.25
2022-08-11T20:12:54.725Z,98754.34
2022-08-11T20:18:16.589Z,98758.81
2022-08-11T20:23:35.535Z,98762.63
2022-08-11T20:28:57.927Z,98760.88
2022-08-11T20:34:20.232Z,98767.16
2022-08-11T20:39:41.714Z,98763.31
2022-08-11T20:45:00.721Z,98759.81
2022-08-11T20:50:23.883Z,98761.81
2022-08-11T20:55:53.221Z,98765.72
2022-08-11T21:01:24.295Z,98764.31
2022-08-11T21:06:52.568Z,98776.50
2022-08-11T21:12:14.381Z,98783.22
2022-08-11T21:17:34.959Z,98784.44
2022-08-11T21:23:05.940Z,98793.84
2022-08-11T21:28:27.353Z,98781.56
2022-08-11T21:33:47.078Z,98790.69
2022-08-11T21:39:09.150Z,98792.94
2022-08-11T21:44:26.905Z,98785.41
2022-08-11T21:49:48.124Z,98792.22
2022-08-11T21:55:09.832Z,98792.47
2022-08-11T22:00:29.025Z,98790.25
2022-08-11T22:05:48.454Z,98797.25
2022-08-11T22:11:08.565Z,98801.25
2022-08-11T22:16:27.091Z,98795.41
2022-08-11T22:21:56.821Z,98797.56
2022-08-11T22:27:24.833Z,98803.47
2022-08-11T22:32:43.160Z,98797.41
2022-08-11T22:38:02.673Z,98801.44
2022-08-11T22:43:22.734Z,98806.09
2022-08-11T22:48:41.569Z,98803.16
2022-08-11T22:53:59.951Z,98801.31
2022-08-11T22:59:21.624Z,98806.16
2022-08-11T23:04:40.006Z,98808.69
2022-08-11T23:09:57.521Z,98812.00
2022-08-11T23:15:18.453Z,98809.09
2022-08-11T23:20:40.712Z,98800.25
2022-08-11T23:26:12.434Z,98799.19
2022-08-11T23:31:50.323Z,98799.84
2022-08-11T23:37:10.061Z,98801.53
2022-08-11T23:48:23.080Z,98790.41
2022-08-11T23:53:40.690Z,98795.41
2022-08-11T23:58:59.064Z,98785.13
